Time;durP1;ratioP1;P1;durP2;ratioP2;P2;SDS_P1;SDS_P2;PMS_P1;PMS_P2;Temp;Humidity;BMP_temperature;BMP_pressure;BME280_temperature;BME280_humidity;BME280_pressure;Samples;Min_cycle;Max_cycle;Signal;HPM_P1;HPM_P2
2024/01/13 00:01:36;;;;;;;37.50;23.20;;;-0.40;99.90;;;;;;4976838;28;20981;-68
2024/01/13 00:04:01;;;;;;;35.70;22.43;;;-0.40;99.90;;;;;;5002163;28;20171;-69
2024/01/13 00:06:27;;;;;;;41.53;25.00;;;-0.40;99.90;;;;;;4974527;28;20177;-69
2024/01/13 00:08:52;;;;;;;45.87;25.10;;;-0.50;99.90;;;;;;4989577;28;20358;-69
2024/01/13 00:11:18;;;;;;;41.40;24.10;;;-0.50;99.90;;;;;;4989629;28;20252;-69
2024/01/13 00:13:44;;;;;;;41.80;25.20;;;-0.60;99.90;;;;;;4999365;28;20608;-69
2024/01/13 00:16:09;;;;;;;47.27;24.83;;;-0.50;99.90;;;;;;4990075;28;20560;-67
2024/01/13 00:18:35;;;;;;;37.77;23.13;;;-0.70;99.90;;;;;;4977621;28;20300;-68
2024/01/13 00:21:00;;;;;;;41.73;24.47;;;-0.60;99.90;;;;;;4974113;28;20214;-67
2024/01/13 00:23:26;;;;;;;45.60;26.10;;;-0.70;99.90;;;;;;4995741;28;20265;-68
2024/01/13 00:25:51;;;;;;;37.10;21.50;;;-0.70;99.90;;;;;;4977676;28;20547;-68
2024/01/13 00:28:17;;;;;;;40.37;23.27;;;-0.60;99.90;;;;;;5000488;28;20186;-68
2024/01/13 00:30:42;;;;;;;40.83;25.43;;;-0.60;99.90;;;;;;5000308;28;20173;-68
2024/01/13 00:33:08;;;;;;;42.10;25.37;;;-0.50;99.90;;;;;;4991413;28;20185;-68
2024/01/13 00:35:34;;;;;;;40.33;23.53;;;-0.40;99.90;;;;;;4987883;28;20213;-67
2024/01/13 00:37:59;;;;;;;43.10;23.17;;;-0.50;99.90;;;;;;4991785;28;20186;-68
2024/01/13 00:40:25;;;;;;;43.43;24.03;;;-0.60;99.90;;;;;;4994030;28;20933;-68
2024/01/13 00:42:50;;;;;;;44.20;23.93;;;-0.60;99.90;;;;;;4992300;28;20258;-69
2024/01/13 00:45:16;;;;;;;41.90;22.57;;;-0.60;99.90;;;;;;4993960;28;20175;-69
2024/01/13 00:47:42;;;;;;;41.20;24.57;;;-0.50;99.90;;;;;;4992919;28;20201;-67
2024/01/13 00:50:08;;;;;;;42.20;24.90;;;-0.30;99.90;;;;;;4982541;28;20240;-68
2024/01/13 00:52:34;;;;;;;46.13;24.70;;;-0.30;99.90;;;;;;4983447;28;20870;-69
2024/01/13 00:54:59;;;;;;;44.20;25.80;;;-0.30;99.90;;;;;;4992051;28;20581;-68
2024/01/13 00:57:25;;;;;;;51.33;29.07;;;-0.30;99.90;;;;;;4989161;28;20211;-69
2024/01/13 00:59:50;;;;;;;53.10;28.13;;;-0.20;99.90;;;;;;4973874;28;20199;-69
2024/01/13 01:02:16;;;;;;;48.57;29.47;;;-0.40;99.90;;;;;;4978101;28;20219;-69
2024/01/13 01:04:42;;;;;;;43.80;25.40;;;-0.20;99.90;;;;;;5002303;28;20173;-68
2024/01/13 01:07:09;;;;;;;44.13;24.93;;;-0.40;99.90;;;;;;4990853;28;20637;-69
2024/01/13 01:09:35;;;;;;;44.00;22.53;;;-0.50;99.90;;;;;;4974634;28;20182;-68
2024/01/13 01:12:00;;;;;;;40.67;23.57;;;-0.60;99.90;;;;;;4995578;28;20443;-69
2024/01/13 01:14:26;;;;;;;39.73;23.63;;;-0.80;99.90;;;;;;4982273;28;20175;-69
2024/01/13 01:16:52;;;;;;;37.80;25.00;;;-0.70;99.90;;;;;;4977330;28;20181;-67
2024/01/13 01:19:17;;;;;;;40.30;24.17;;;-0.50;99.90;;;;;;4990922;28;20207;-68
2024/01/13 01:21:43;;;;;;;38.70;23.33;;;-0.70;99.90;;;;;;4995998;28;20287;-68
2024/01/13 01:24:09;;;;;;;41.87;24.83;;;-0.70;99.90;;;;;;4987047;28;20174;-67
2024/01/13 01:26:34;;;;;;;38.60;23.73;;;-0.70;99.90;;;;;;4981010;28;20179;-69
2024/01/13 01:29:00;;;;;;;40.83;24.23;;;-0.60;99.90;;;;;;4996771;28;20191;-67
2024/01/13 01:31:25;;;;;;;42.63;27.00;;;-0.60;99.90;;;;;;4996494;28;20256;-70
2024/01/13 01:33:51;;;;;;;42.43;24.53;;;-0.60;99.90;;;;;;4988531;28;20676;-67
2024/01/13 01:36:16;;;;;;;41.07;23.90;;;-0.70;99.90;;;;;;4995104;28;20186;-68
2024/01/13 01:38:42;;;;;;;42.80;25.83;;;-0.70;99.90;;;;;;4985144;28;20541;-69
2024/01/13 01:41:08;;;;;;;41.83;25.00;;;-0.60;99.90;;;;;;4976908;28;20219;-67
2024/01/13 01:43:33;;;;;;;49.40;27.83;;;-0.60;99.90;;;;;;4990424;28;20181;-68
2024/01/13 01:46:00;;;;;;;54.77;31.33;;;-0.60;99.90;;;;;;4994371;28;20467;-67
2024/01/13 01:48:34;;;;;;;62.30;32.10;;;-0.50;99.90;;;;;;4993109;28;20217;-68
2024/01/13 01:51:00;;;;;;;50.20;28.23;;;-0.60;99.90;;;;;;4979572;28;20432;-69
2024/01/13 01:53:26;;;;;;;50.20;28.13;;;-0.50;99.90;;;;;;5003073;28;20426;-68
2024/01/13 01:55:52;;;;;;;46.80;27.70;;;-0.50;99.90;;;;;;4978167;28;20557;-69
2024/01/13 01:58:20;;;;;;;52.00;27.20;;;-0.50;99.90;;;;;;5008021;28;20411;-69
2024/01/13 02:00:46;;;;;;;53.13;27.47;;;-0.40;99.90;;;;;;4976680;28;20207;-68
2024/01/13 02:03:12;;;;;;;42.37;25.73;;;-0.30;99.90;;;;;;4992225;28;20410;-68
2024/01/13 02:05:37;;;;;;;44.97;27.67;;;-0.30;99.90;;;;;;5004516;28;20414;-68
2024/01/13 02:08:04;;;;;;;43.67;27.13;;;-0.30;99.90;;;;;;4978432;28;20412;-68
2024/01/13 02:10:30;;;;;;;38.17;25.90;;;-0.20;99.90;;;;;;4993833;28;20659;-68
2024/01/13 02:12:55;;;;;;;47.53;27.60;;;-0.10;99.90;;;;;;5000790;28;20432;-70
2024/01/13 02:15:21;;;;;;;52.10;28.23;;;0.00;99.90;;;;;;4995125;28;20790;-68
2024/01/13 02:17:46;;;;;;;53.73;30.67;;;0.00;99.90;;;;;;4995623;28;20165;-69
2024/01/13 02:20:12;;;;;;;55.13;30.40;;;-0.20;99.90;;;;;;4992005;28;20203;-69
2024/01/13 02:22:37;;;;;;;56.17;31.43;;;-0.30;99.90;;;;;;4998141;28;20206;-69
2024/01/13 02:25:05;;;;;;;48.60;28.67;;;-0.20;99.90;;;;;;5009219;28;20258;-69
2024/01/13 02:27:30;;;;;;;47.03;28.90;;;-0.20;99.90;;;;;;4976625;28;20561;-67
2024/01/13 02:29:56;;;;;;;46.80;28.27;;;-0.20;99.90;;;;;;4988781;28;20450;-69
2024/01/13 02:32:22;;;;;;;54.60;32.50;;;-0.20;99.90;;;;;;4995990;28;20426;-67
2024/01/13 02:34:47;;;;;;;60.60;32.47;;;-0.40;99.90;;;;;;4978920;28;20264;-69
2024/01/13 02:37:13;;;;;;;59.67;30.63;;;-0.30;99.90;;;;;;4975977;28;20173;-69
2024/01/13 02:39:39;;;;;;;62.80;35.30;;;-0.20;99.90;;;;;;4976779;28;20211;-70
2024/01/13 02:42:05;;;;;;;51.13;30.23;;;-0.10;99.90;;;;;;4976933;28;20200;-70
2024/01/13 02:44:30;;;;;;;54.90;31.10;;;-0.10;99.90;;;;;;5002384;28;20173;-68
2024/01/13 02:46:56;;;;;;;59.37;32.90;;;-0.10;99.90;;;;;;4995051;28;20782;-68
2024/01/13 02:49:22;;;;;;;54.80;31.20;;;-0.20;99.90;;;;;;4991104;28;20208;-68
2024/01/13 02:51:47;;;;;;;56.87;32.60;;;-0.10;99.90;;;;;;4993521;28;20201;-67
2024/01/13 02:54:13;;;;;;;52.80;30.07;;;0.00;99.90;;;;;;4991343;28;20185;-68
2024/01/13 02:56:39;;;;;;;56.07;30.13;;;-0.10;99.90;;;;;;4975526;28;20187;-68
2024/01/13 02:59:05;;;;;;;60.33;29.87;;;-0.20;99.90;;;;;;4975277;28;20196;-68
2024/01/13 03:01:30;;;;;;;51.40;29.87;;;-0.30;99.90;;;;;;4975502;28;20199;-67
2024/01/13 03:03:56;;;;;;;56.23;33.47;;;-0.40;99.90;;;;;;4996188;28;20173;-69
2024/01/13 03:06:23;;;;;;;58.97;30.87;;;-0.30;99.90;;;;;;4994803;28;20172;-69
2024/01/13 03:08:49;;;;;;;56.37;28.90;;;-0.30;99.90;;;;;;4994191;28;20418;-68
2024/01/13 03:11:15;;;;;;;52.00;29.63;;;-0.40;99.90;;;;;;4994520;28;20447;-69
2024/01/13 03:13:40;;;;;;;49.23;28.50;;;-0.40;99.90;;;;;;5003542;28;20588;-70
2024/01/13 03:16:09;;;;;;;55.57;30.70;;;-0.40;99.90;;;;;;4994663;28;20179;-68
2024/01/13 03:18:35;;;;;;;53.17;27.73;;;-0.50;99.90;;;;;;4994496;28;20201;-67
2024/01/13 03:21:03;;;;;;;52.73;29.50;;;-0.50;99.90;;;;;;4976886;28;20481;-67
2024/01/13 03:23:29;;;;;;;53.17;29.43;;;-0.40;99.90;;;;;;5004044;28;20390;-70
2024/01/13 03:25:55;;;;;;;52.27;28.93;;;-0.30;99.90;;;;;;4994400;28;20443;-68
2024/01/13 03:28:21;;;;;;;52.77;27.17;;;-0.40;99.90;;;;;;4991669;28;20445;-68
2024/01/13 03:30:47;;;;;;;52.83;28.33;;;-0.40;99.90;;;;;;4975239;28;20450;-68
2024/01/13 03:33:12;;;;;;;52.43;27.17;;;-0.40;99.90;;;;;;4982069;28;20457;-67
2024/01/13 03:35:38;;;;;;;54.13;28.77;;;-0.50;99.90;;;;;;4992545;28;20185;-68
2024/01/13 03:38:03;;;;;;;46.63;27.20;;;-0.70;99.90;;;;;;4976503;28;20192;-68
2024/01/13 03:40:29;;;;;;;53.30;29.50;;;-0.70;99.90;;;;;;4990709;28;20188;-68
2024/01/13 03:42:54;;;;;;;49.60;27.50;;;-0.70;99.90;;;;;;4982758;28;20211;-69
2024/01/13 03:45:20;;;;;;;43.23;26.10;;;-0.60;99.90;;;;;;4999998;28;20179;-68
2024/01/13 03:47:46;;;;;;;47.87;28.50;;;-0.60;99.90;;;;;;4976075;28;20180;-68
2024/01/13 03:50:12;;;;;;;50.47;27.40;;;-0.60;99.90;;;;;;4993958;28;20563;-69
2024/01/13 03:52:37;;;;;;;51.97;27.60;;;-0.40;99.90;;;;;;4995800;28;20193;-68
2024/01/13 03:55:03;;;;;;;45.80;28.97;;;-0.30;99.90;;;;;;5002338;28;20470;-69
2024/01/13 03:57:29;;;;;;;52.30;26.50;;;-0.30;99.90;;;;;;4993732;28;20181;-69
2024/01/13 03:59:54;;;;;;;53.10;28.70;;;-0.20;99.90;;;;;;4990868;28;20452;-68
2024/01/13 04:02:20;;;;;;;55.33;29.10;;;-0.20;99.90;;;;;;4984886;28;20207;-69
2024/01/13 04:04:45;;;;;;;48.90;28.40;;;-0.30;99.90;;;;;;4987312;28;20184;-69
2024/01/13 04:07:11;;;;;;;57.83;29.57;;;-0.30;99.90;;;;;;4974590;28;20208;-68
2024/01/13 04:09:39;;;;;;;45.67;27.10;;;-0.40;99.90;;;;;;4974477;28;20195;-67
2024/01/13 04:12:05;;;;;;;45.60;26.93;;;-0.40;99.90;;;;;;4974404;28;20630;-69
2024/01/13 04:14:31;;;;;;;50.33;26.77;;;-0.40;99.90;;;;;;4997937;28;20415;-69
2024/01/13 04:16:57;;;;;;;38.40;21.60;;;-0.20;99.90;;;;;;4976443;28;20425;-69
2024/01/13 04:19:22;;;;;;;39.70;24.40;;;-0.30;99.90;;;;;;4993375;28;20879;-68
2024/01/13 04:21:48;;;;;;;35.67;22.47;;;-0.30;99.90;;;;;;4993593;28;20588;-69
2024/01/13 04:24:13;;;;;;;43.33;25.37;;;-0.30;99.90;;;;;;4989641;28;20203;-69
2024/01/13 04:26:40;;;;;;;39.60;23.73;;;-0.50;99.90;;;;;;4993382;28;20183;-69
2024/01/13 04:29:05;;;;;;;43.57;26.40;;;-0.50;99.90;;;;;;4993388;28;20182;-69
2024/01/13 04:31:31;;;;;;;38.83;24.00;;;-0.40;99.90;;;;;;4993275;28;20446;-69
2024/01/13 04:33:56;;;;;;;37.10;22.90;;;-0.30;99.90;;;;;;4990768;28;20227;-69
2024/01/13 04:36:22;;;;;;;44.97;25.13;;;-0.30;99.90;;;;;;4993286;28;20181;-69
2024/01/13 04:38:49;;;;;;;40.97;22.27;;;-0.30;99.90;;;;;;4992867;28;20199;-69
2024/01/13 04:41:15;;;;;;;42.17;24.10;;;-0.30;99.90;;;;;;4993207;28;20198;-67
2024/01/13 04:43:42;;;;;;;33.83;21.40;;;-0.40;99.90;;;;;;4991312;28;20505;-65
2024/01/13 04:46:10;;;;;;;44.00;23.70;;;-0.20;99.90;;;;;;4989793;28;20265;-68
2024/01/13 04:48:36;;;;;;;42.17;25.20;;;-0.40;99.90;;;;;;4977793;28;20424;-68
2024/01/13 04:51:01;;;;;;;44.67;26.27;;;-0.30;99.90;;;;;;4985819;28;20447;-67
2024/01/13 04:53:27;;;;;;;52.40;30.17;;;-0.60;99.90;;;;;;4989430;28;20577;-67
2024/01/13 04:55:53;;;;;;;51.30;27.77;;;-0.50;99.90;;;;;;4997004;28;20235;-67
2024/01/13 04:58:18;;;;;;;46.53;26.33;;;-0.60;99.90;;;;;;4985028;28;20644;-67
2024/01/13 05:00:44;;;;;;;54.53;29.70;;;-0.50;99.90;;;;;;4977871;28;20187;-68
2024/01/13 05:03:09;;;;;;;54.03;31.50;;;-0.40;99.90;;;;;;4988500;28;20187;-67
2024/01/13 05:05:35;;;;;;;60.60;30.67;;;-0.40;99.90;;;;;;5016747;28;20160;-67
2024/01/13 05:08:01;;;;;;;66.00;33.80;;;-0.40;99.90;;;;;;4991867;28;20179;-66
2024/01/13 05:10:27;;;;;;;58.80;31.50;;;-0.50;99.90;;;;;;4997274;28;20408;-68
2024/01/13 05:12:52;;;;;;;63.10;33.93;;;-0.60;99.90;;;;;;4997647;28;20626;-68
2024/01/13 05:15:18;;;;;;;59.30;31.50;;;-0.70;99.90;;;;;;4977546;28;20421;-68
2024/01/13 05:17:43;;;;;;;57.00;31.60;;;-0.60;99.90;;;;;;4995021;28;20186;-67
2024/01/13 05:20:10;;;;;;;57.73;31.77;;;-0.70;99.90;;;;;;4985797;28;20213;-69
2024/01/13 05:22:35;;;;;;;53.80;30.67;;;-0.70;99.90;;;;;;4977241;28;20285;-69
2024/01/13 05:25:01;;;;;;;67.23;35.20;;;-0.50;99.90;;;;;;5016344;28;20405;-69
2024/01/13 05:27:27;;;;;;;52.73;30.10;;;-0.60;99.90;;;;;;5000172;28;20225;-68
2024/01/13 05:29:52;;;;;;;50.30;28.53;;;-0.50;99.90;;;;;;4977160;28;20429;-67
2024/01/13 05:32:18;;;;;;;66.40;33.83;;;-0.40;99.90;;;;;;4978440;28;20712;-68
2024/01/13 05:34:43;;;;;;;61.37;31.20;;;-0.40;99.90;;;;;;4993714;28;20184;-69
2024/01/13 05:37:09;;;;;;;51.57;28.30;;;-0.30;99.90;;;;;;4998427;28;20235;-69
2024/01/13 05:39:35;;;;;;;52.03;31.50;;;-0.40;99.90;;;;;;4989425;28;20211;-69
2024/01/13 05:42:00;;;;;;;60.63;32.93;;;-0.30;99.90;;;;;;4990794;28;20201;-69
2024/01/13 05:44:26;;;;;;;56.97;29.70;;;-0.20;99.90;;;;;;5010066;28;20183;-69
2024/01/13 05:46:52;;;;;;;48.70;27.90;;;-0.20;99.90;;;;;;4996944;28;20456;-69
2024/01/13 05:49:18;;;;;;;47.63;25.93;;;-0.10;99.90;;;;;;4996300;28;20420;-69
2024/01/13 05:51:44;;;;;;;53.47;28.70;;;-0.10;99.90;;;;;;4996577;28;20193;-70
2024/01/13 05:54:10;;;;;;;45.47;25.80;;;-0.20;99.90;;;;;;5008438;28;20672;-70
2024/01/13 05:56:38;;;;;;;54.20;28.70;;;-0.50;99.90;;;;;;5014497;28;20410;-69
2024/01/13 05:59:03;;;;;;;53.50;31.03;;;-0.50;99.90;;;;;;5003800;28;20276;-68
2024/01/13 06:01:30;;;;;;;47.73;27.93;;;-0.30;99.90;;;;;;5015472;28;20466;-68
2024/01/13 06:03:55;;;;;;;47.23;26.10;;;-0.30;99.90;;;;;;5005347;28;20168;-68
2024/01/13 06:06:21;;;;;;;45.23;26.00;;;-0.30;99.90;;;;;;4995882;28;20423;-69
2024/01/13 06:08:47;;;;;;;49.90;26.27;;;-0.50;99.90;;;;;;4994393;28;20434;-68
2024/01/13 06:11:12;;;;;;;49.27;25.47;;;-0.40;99.90;;;;;;4976059;28;20205;-68
2024/01/13 06:13:39;;;;;;;46.10;26.23;;;-0.40;99.90;;;;;;4991765;28;20546;-68
2024/01/13 06:16:05;;;;;;;43.93;25.30;;;-0.40;99.90;;;;;;5015600;28;20179;-68
2024/01/13 06:18:30;;;;;;;47.47;24.87;;;-0.60;99.90;;;;;;5016216;28;20468;-68
2024/01/13 06:20:56;;;;;;;49.90;28.70;;;-0.70;99.90;;;;;;5015383;28;20183;-68
2024/01/13 06:23:21;;;;;;;45.30;25.00;;;-0.60;99.90;;;;;;5010592;28;20172;-69
2024/01/13 06:25:47;;;;;;;56.33;27.73;;;-0.70;99.90;;;;;;4995840;28;20169;-68
2024/01/13 06:28:13;;;;;;;49.20;28.27;;;-0.80;99.90;;;;;;4995753;28;20172;-68
2024/01/13 06:30:38;;;;;;;47.80;25.67;;;-0.60;99.90;;;;;;4995795;28;20574;-67
2024/01/13 06:33:04;;;;;;;46.67;25.60;;;-0.40;99.90;;;;;;4998210;28;20178;-67
2024/01/13 06:35:29;;;;;;;50.87;27.40;;;-0.10;99.90;;;;;;4995742;28;20532;-69
2024/01/13 06:37:55;;;;;;;43.57;25.73;;;-0.20;99.90;;;;;;4978272;28;20179;-69
2024/01/13 06:40:21;;;;;;;55.27;30.00;;;-0.40;99.90;;;;;;4995658;28;20228;-69
2024/01/13 06:42:47;;;;;;;50.00;28.53;;;-0.60;99.90;;;;;;4958862;28;20467;-68
2024/01/13 06:45:12;;;;;;;50.63;29.50;;;-0.70;99.90;;;;;;4982986;28;20183;-68
2024/01/13 06:47:38;;;;;;;54.87;28.20;;;-0.50;99.90;;;;;;4995176;28;20175;-68
2024/01/13 06:50:04;;;;;;;49.13;28.13;;;-0.70;99.90;;;;;;4985042;28;20211;-68
2024/01/13 06:52:30;;;;;;;45.43;26.10;;;-0.80;99.90;;;;;;4975769;28;20227;-68
2024/01/13 06:54:55;;;;;;;50.43;27.90;;;-0.90;99.90;;;;;;5010531;28;21053;-68
2024/01/13 06:57:22;;;;;;;50.77;28.60;;;-0.70;99.90;;;;;;5015012;28;20247;-68
2024/01/13 06:59:47;;;;;;;51.93;29.37;;;-0.60;99.90;;;;;;5014476;28;20202;-68
2024/01/13 07:02:13;;;;;;;59.90;29.47;;;-0.60;99.90;;;;;;5004260;28;20437;-68
2024/01/13 07:04:40;;;;;;;46.20;26.37;;;-0.50;99.90;;;;;;5010433;28;20177;-68
2024/01/13 07:07:06;;;;;;;53.43;29.07;;;-0.60;99.90;;;;;;5014473;28;20956;-70
2024/01/13 07:09:32;;;;;;;48.17;28.37;;;-0.60;99.90;;;;;;5014857;28;20445;-68
2024/01/13 07:11:58;;;;;;;61.43;30.10;;;-0.70;99.90;;;;;;5014336;28;20657;-69
2024/01/13 07:14:23;;;;;;;57.23;31.47;;;-0.60;99.90;;;;;;5001377;28;20422;-69
2024/01/13 07:16:49;;;;;;;62.00;31.87;;;-0.60;99.90;;;;;;4995139;28;20412;-69
2024/01/13 07:19:17;;;;;;;56.53;28.00;;;-0.40;99.90;;;;;;4994754;28;20222;-68
2024/01/13 07:21:45;;;;;;;58.03;31.10;;;-0.60;99.90;;;;;;4989130;28;20589;-68
2024/01/13 07:24:11;;;;;;;55.00;29.97;;;-0.70;99.90;;;;;;4997060;28;20409;-68
2024/01/13 07:26:41;;;;;;;56.30;27.80;;;-0.50;99.90;;;;;;5006335;28;20417;-69
2024/01/13 07:29:07;;;;;;;53.87;28.33;;;-0.70;99.90;;;;;;4994419;28;20417;-68
2024/01/13 07:31:33;;;;;;;50.20;27.73;;;-0.50;99.90;;;;;;4986283;28;20447;-68
2024/01/13 07:33:59;;;;;;;48.70;25.63;;;-0.40;99.90;;;;;;4999689;28;20421;-68
2024/01/13 07:36:24;;;;;;;52.97;27.40;;;-0.40;99.90;;;;;;5011807;28;20415;-69
2024/01/13 07:38:50;;;;;;;54.60;26.80;;;-0.40;99.90;;;;;;4994303;28;20196;-68
2024/01/13 07:41:16;;;;;;;50.60;26.90;;;-0.60;99.90;;;;;;4976923;28;20739;-68
2024/01/13 07:43:44;;;;;;;49.17;25.57;;;-0.50;99.90;;;;;;4999173;28;20171;-67
2024/01/13 07:46:12;;;;;;;54.30;29.37;;;-0.50;99.90;;;;;;4976696;28;20439;-69
2024/01/13 07:48:38;;;;;;;57.70;30.10;;;-0.50;99.90;;;;;;4985611;28;20494;-68
2024/01/13 07:51:04;;;;;;;56.67;28.60;;;-0.60;99.90;;;;;;4976945;28;20523;-69
2024/01/13 07:53:29;;;;;;;49.83;27.47;;;-0.60;99.90;;;;;;4992458;28;20211;-68
2024/01/13 07:55:55;;;;;;;48.17;26.60;;;-0.60;99.90;;;;;;4994022;28;20173;-67
2024/01/13 07:58:20;;;;;;;42.20;26.07;;;-0.50;99.90;;;;;;4994015;28;20662;-69
2024/01/13 08:00:46;;;;;;;47.37;23.57;;;-0.30;99.90;;;;;;4990567;28;20188;-67
2024/01/13 08:03:11;;;;;;;46.77;24.63;;;-0.40;99.90;;;;;;4996578;28;20208;-68
2024/01/13 08:05:37;;;;;;;44.57;23.57;;;-0.60;99.90;;;;;;5000711;28;20177;-67
2024/01/13 08:08:06;;;;;;;43.40;24.30;;;-0.60;99.90;;;;;;4992683;28;20235;-70
2024/01/13 08:10:32;;;;;;;48.10;24.87;;;-0.50;99.90;;;;;;4994070;28;20416;-69
2024/01/13 08:13:00;;;;;;;46.20;24.40;;;-0.40;99.90;;;;;;4994459;28;20589;-68
2024/01/13 08:15:26;;;;;;;45.40;25.20;;;-0.50;99.90;;;;;;5013856;28;20171;-68
2024/01/13 08:17:51;;;;;;;46.30;25.30;;;-0.50;99.90;;;;;;5013241;28;20942;-69
2024/01/13 08:20:18;;;;;;;41.77;24.50;;;-0.60;99.90;;;;;;5013189;28;20282;-68
2024/01/13 08:22:46;;;;;;;44.07;25.27;;;-0.60;99.90;;;;;;5014289;28;20204;-69
2024/01/13 08:25:12;;;;;;;44.30;24.60;;;-0.50;99.90;;;;;;4994740;28;20402;-68
2024/01/13 08:27:38;;;;;;;44.43;24.80;;;-0.40;99.90;;;;;;4976234;28;20440;-68
2024/01/13 08:30:04;;;;;;;44.90;25.00;;;-0.20;99.90;;;;;;4985779;28;20832;-69
2024/01/13 08:32:30;;;;;;;44.57;24.67;;;-0.10;99.90;;;;;;4974126;28;20203;-68
2024/01/13 08:34:55;;;;;;;34.83;19.80;;;-0.20;99.90;;;;;;5006399;28;20459;-69
2024/01/13 08:37:21;;;;;;;40.83;21.37;;;0.00;99.90;;;;;;5008799;28;20191;-68
2024/01/13 08:39:47;;;;;;;34.90;19.53;;;-0.10;99.90;;;;;;4973988;28;20246;-68
2024/01/13 08:42:13;;;;;;;26.83;18.47;;;0.00;99.90;;;;;;4974300;28;20460;-69
2024/01/13 08:44:38;;;;;;;25.67;15.70;;;0.00;99.90;;;;;;5001325;28;20174;-68
2024/01/13 08:47:04;;;;;;;24.27;15.07;;;-0.10;99.90;;;;;;5013241;28;20167;-69
2024/01/13 08:49:29;;;;;;;19.00;12.70;;;-0.10;99.90;;;;;;5013112;28;20407;-69
2024/01/13 08:51:55;;;;;;;18.20;10.30;;;0.10;99.90;;;;;;5012995;28;20188;-69
2024/01/13 08:54:23;;;;;;;21.93;12.90;;;0.00;99.90;;;;;;5001915;28;20178;-69
2024/01/13 08:56:49;;;;;;;26.23;14.03;;;0.00;99.90;;;;;;4992823;28;20172;-69
2024/01/13 08:59:15;;;;;;;24.73;14.70;;;0.20;99.90;;;;;;4980522;28;20450;-69
2024/01/13 09:01:41;;;;;;;26.00;14.77;;;0.30;99.90;;;;;;4982882;28;20431;-69
2024/01/13 09:04:10;;;;;;;23.80;14.47;;;0.40;99.90;;;;;;4984700;28;20412;-68
2024/01/13 09:06:36;;;;;;;22.73;13.67;;;0.30;99.90;;;;;;4985764;28;20178;-68
2024/01/13 09:09:02;;;;;;;22.43;13.13;;;0.30;99.90;;;;;;4990768;28;20918;-68
2024/01/13 09:11:28;;;;;;;23.70;14.70;;;0.20;99.90;;;;;;4993478;28;20971;-69
2024/01/13 09:13:54;;;;;;;24.20;14.50;;;0.30;99.90;;;;;;5000709;28;20419;-68
2024/01/13 09:16:19;;;;;;;20.97;11.73;;;0.50;99.90;;;;;;5012840;28;20405;-68
2024/01/13 09:18:45;;;;;;;18.53;11.30;;;0.20;99.90;;;;;;5012725;28;20200;-68
2024/01/13 09:21:12;;;;;;;12.80;8.73;;;0.40;99.90;;;;;;5012521;28;20206;-68
2024/01/13 09:23:39;;;;;;;16.10;10.23;;;0.10;99.90;;;;;;5008567;28;20171;-67
2024/01/13 09:26:05;;;;;;;12.10;8.10;;;0.00;99.90;;;;;;4993064;28;20411;-68
2024/01/13 09:28:32;;;;;;;21.33;12.73;;;0.10;99.90;;;;;;4993306;28;20404;-68
2024/01/13 09:30:58;;;;;;;17.13;9.70;;;0.10;99.90;;;;;;4994473;28;20610;-68
2024/01/13 09:33:24;;;;;;;19.90;13.10;;;0.00;99.90;;;;;;4997921;28;20497;-69
2024/01/13 09:35:49;;;;;;;23.80;13.77;;;0.00;99.90;;;;;;4990187;28;20175;-70
2024/01/13 09:38:15;;;;;;;18.70;12.40;;;0.10;99.90;;;;;;4976974;28;20419;-68
2024/01/13 09:40:41;;;;;;;17.37;11.20;;;0.20;99.90;;;;;;4987253;28;20184;-70
2024/01/13 09:43:25;;;;;;;15.50;8.93;;;0.00;99.90;;;;;;4996578;28;20230;-68
2024/01/13 09:45:51;;;;;;;12.27;8.50;;;0.00;99.90;;;;;;4998244;28;20672;-70
2024/01/13 09:48:20;;;;;;;9.80;6.90;;;0.00;99.90;;;;;;5016002;28;20418;-71
2024/01/13 09:50:51;;;;;;;10.30;7.13;;;0.00;99.90;;;;;;5016158;28;20918;-69
2024/01/13 09:53:40;;;;;;;9.47;6.90;;;-0.30;99.90;;;;;;5000232;28;20907;-69
2024/01/13 09:56:17;;;;;;;9.40;7.20;;;-0.30;99.90;;;;;;4979118;28;20424;-71
2024/01/13 09:58:42;;;;;;;11.50;7.70;;;-0.20;99.90;;;;;;4969828;28;20440;-71
2024/01/13 10:01:08;;;;;;;12.27;7.93;;;-0.20;99.90;;;;;;4988154;28;20219;-69
2024/01/13 10:03:33;;;;;;;11.27;8.70;;;-0.30;99.90;;;;;;5009361;28;20170;-72
2024/01/13 10:05:59;;;;;;;10.43;7.70;;;-0.40;99.90;;;;;;5015479;28;20168;-71
2024/01/13 10:08:32;;;;;;;14.53;8.60;;;-0.40;99.90;;;;;;5015494;28;20221;-71
2024/01/13 10:11:00;;;;;;;14.37;8.60;;;-0.50;99.90;;;;;;5014342;28;20164;-71
2024/01/13 10:13:26;;;;;;;13.97;10.10;;;-0.50;99.90;;;;;;5000553;28;20428;-69
2024/01/13 10:15:52;;;;;;;12.70;7.60;;;-0.30;99.90;;;;;;4978456;28;20408;-67
2024/01/13 10:18:20;;;;;;;10.47;9.27;;;-0.20;99.90;;;;;;4996102;28;20259;-68
2024/01/13 10:20:46;;;;;;;13.27;10.50;;;-0.30;99.90;;;;;;4995830;28;20409;-68
2024/01/13 10:23:11;;;;;;;14.47;9.30;;;-0.20;99.90;;;;;;5006615;28;20392;-69
2024/01/13 10:25:37;;;;;;;10.83;7.93;;;-0.20;99.90;;;;;;5015515;28;20237;-69
2024/01/13 10:28:03;;;;;;;13.60;9.50;;;0.20;99.90;;;;;;5015053;28;20414;-69
2024/01/13 10:30:29;;;;;;;18.43;10.70;;;0.40;99.90;;;;;;4997492;28;20181;-69
2024/01/13 10:32:58;;;;;;;14.80;10.40;;;0.20;99.90;;;;;;5006854;28;20427;-69
2024/01/13 10:35:25;;;;;;;15.33;11.10;;;0.10;99.90;;;;;;4995826;28;20443;-68
2024/01/13 10:37:51;;;;;;;14.70;10.30;;;0.00;99.90;;;;;;4977970;28;20439;-69
2024/01/13 10:40:17;;;;;;;15.43;11.33;;;-0.10;99.90;;;;;;4993798;28;20938;-70
2024/01/13 10:42:48;;;;;;;15.97;9.50;;;-0.10;99.90;;;;;;4988516;28;20223;-69
2024/01/13 10:45:17;;;;;;;16.97;11.23;;;-0.20;99.90;;;;;;4986700;28;20236;-68
2024/01/13 10:47:49;;;;;;;17.03;11.03;;;0.10;99.90;;;;;;4983278;28;20492;-72
2024/01/13 10:50:15;;;;;;;19.33;11.53;;;0.00;99.90;;;;;;4985747;28;20497;-68
2024/01/13 10:53:00;;;;;;;17.50;12.50;;;0.10;99.90;;;;;;4991855;28;20524;-68
2024/01/13 10:55:28;;;;;;;23.30;12.70;;;0.00;99.90;;;;;;4983349;28;20178;-68
2024/01/13 10:57:55;;;;;;;20.30;14.10;;;0.10;99.90;;;;;;4983949;28;20503;-69
2024/01/13 11:00:21;;;;;;;21.07;14.37;;;-0.10;99.90;;;;;;4984059;28;20448;-68
2024/01/13 11:02:49;;;;;;;21.37;13.27;;;-0.10;99.90;;;;;;4996674;28;20423;-67
2024/01/13 11:05:15;;;;;;;15.90;11.90;;;-0.10;99.90;;;;;;4987290;28;20405;-67
2024/01/13 11:07:41;;;;;;;15.93;11.77;;;0.10;99.90;;;;;;4978202;28;20514;-70
2024/01/13 11:10:16;;;;;;;18.40;13.10;;;0.20;99.90;;;;;;4996257;28;20191;-70
2024/01/13 11:13:02;;;;;;;17.20;12.30;;;0.40;99.90;;;;;;4995123;28;20906;-69
2024/01/13 11:15:52;;;;;;;17.87;13.80;;;0.40;99.90;;;;;;4997729;28;20475;-68
2024/01/13 11:18:19;;;;;;;17.43;11.57;;;0.40;99.90;;;;;;4986524;28;20433;-69
2024/01/13 11:21:07;;;;;;;20.57;12.40;;;0.40;99.90;;;;;;4975345;28;20485;-69
2024/01/13 11:23:46;;;;;;;18.30;12.97;;;0.70;99.90;;;;;;5000105;28;20442;-69
2024/01/13 11:26:15;;;;;;;21.70;13.20;;;0.60;99.90;;;;;;5001217;28;20404;-67
2024/01/13 11:28:54;;;;;;;20.50;13.57;;;0.50;99.90;;;;;;4994656;28;20415;-69
2024/01/13 11:31:37;;;;;;;21.87;14.57;;;0.80;99.90;;;;;;4992932;28;20438;-68
2024/01/13 11:34:06;;;;;;;17.50;12.67;;;0.50;99.90;;;;;;4985653;28;20968;-71
2024/01/13 11:36:39;;;;;;;17.10;12.87;;;0.20;99.90;;;;;;4984491;28;20415;-70
2024/01/13 11:39:06;;;;;;;15.10;11.30;;;0.20;99.90;;;;;;4983209;28;20980;-68
2024/01/13 11:41:48;;;;;;;22.77;16.23;;;0.40;99.90;;;;;;4984976;28;20443;-71
2024/01/13 11:44:32;;;;;;;21.07;12.23;;;0.40;99.90;;;;;;4984464;28;20411;-69
2024/01/13 11:47:06;;;;;;;18.17;12.97;;;0.50;99.90;;;;;;4984386;28;20462;-74
2024/01/13 11:49:39;;;;;;;22.03;12.50;;;0.50;99.90;;;;;;4985532;28;20490;-70
2024/01/13 11:52:12;;;;;;;18.20;11.10;;;0.60;99.90;;;;;;4965572;28;20514;-70
2024/01/13 11:54:38;;;;;;;15.37;12.00;;;0.70;99.90;;;;;;4960787;28;20430;-72
2024/01/13 11:57:12;;;;;;;17.00;11.27;;;0.70;99.90;;;;;;4983112;28;20408;-70
2024/01/13 11:59:38;;;;;;;17.53;12.13;;;0.80;99.90;;;;;;4983494;28;20455;-69
2024/01/13 12:02:05;;;;;;;18.10;12.17;;;0.70;99.90;;;;;;4984943;28;20431;-69
2024/01/13 12:04:33;;;;;;;15.17;11.63;;;0.70;99.90;;;;;;4986171;28;20476;-69
2024/01/13 12:06:59;;;;;;;16.30;11.70;;;0.60;99.90;;;;;;4980951;28;20463;-68
2024/01/13 12:09:27;;;;;;;17.73;11.70;;;0.90;99.90;;;;;;4974504;28;20491;-69
2024/01/13 12:11:54;;;;;;;16.90;12.90;;;0.60;99.90;;;;;;4974470;28;20523;-69
2024/01/13 12:14:27;;;;;;;15.20;11.73;;;0.60;99.90;;;;;;5010637;28;20784;-69
2024/01/13 12:16:57;;;;;;;17.27;11.67;;;0.50;99.90;;;;;;5002075;28;20415;-69
2024/01/13 12:19:25;;;;;;;19.07;13.23;;;0.60;99.90;;;;;;4993657;28;20942;-69
2024/01/13 12:21:52;;;;;;;16.07;11.33;;;0.60;99.90;;;;;;4976186;28;20553;-70
2024/01/13 12:24:25;;;;;;;21.90;14.93;;;0.70;99.90;;;;;;5011222;28;20460;-69
2024/01/13 12:26:51;;;;;;;32.50;20.33;;;0.80;99.90;;;;;;5003006;28;20455;-68
2024/01/13 12:29:17;;;;;;;19.03;13.40;;;0.90;99.90;;;;;;4982819;28;20404;-68